Terminal Aerodrome Forecast
Issued by NWS

Home | Current Version | Previous Version | Graphics & Text | Print | Product List | Glossary On
Versions: 1 2 3 4 5 6 7 8 9 10 11 12 13 14 15 16 17 18 19 20
000
FTUS43 KGRB 022330
TAFCWA
TAF
KCWA 022330Z 0300/0324 04005KT P6SM VCSH SCT015 BKN050
      TEMPO 0300/0302 3SM TSRA BKN015CB
     FM030900 VRB03KT 3SM BR SCT003 BKN015
      TEMPO 0310/0314 1SM BR BKN003
     FM031500 12005KT P6SM BKN015
     FM031800 12005KT P6SM VCSH SCT020 BKN040
     FM032200 11005KT P6SM SCT040 SCT100=

USA.gov is the U.S. government's official web portal to all federal, state and local government web resources and services.